createdAt,value
2023-04-13T00:02:40.403Z,99498.94
2023-04-13T00:06:42.783Z,99499.41
2023-04-13T00:10:46.131Z,99493.66
2023-04-13T00:14:50.797Z,99502.59
2023-04-13T00:18:52.449Z,99498.06
2023-04-13T00:22:54.462Z,99494.34
2023-04-13T00:26:57.184Z,99501.97
2023-04-13T00:30:59.559Z,99493.38
2023-04-13T00:35:02.034Z,99503.72
2023-04-13T00:39:04.855Z,99498.19
2023-04-13T00:43:06.956Z,99513.22
2023-04-13T00:47:09.100Z,99508.50
2023-04-13T00:51:13.637Z,99507.88
2023-04-13T00:55:20.848Z,99499.47
2023-04-13T00:59:23.554Z,99498.00
2023-04-13T01:03:29.859Z,99485.59
2023-04-13T01:07:59.490Z,99489.56
2023-04-13T01:12:47.089Z,99490.03
2023-04-13T01:16:56.916Z,99483.06
2023-04-13T01:21:00.587Z,99479.06
2023-04-13T01:25:22.363Z,99484.38
2023-04-13T01:29:27.134Z,99483.41
2023-04-13T01:33:30.809Z,99488.09
2023-04-13T01:37:33.982Z,99488.53
2023-04-13T01:41:36.451Z,99488.75
2023-04-13T01:45:47.679Z,99483.84
2023-04-13T01:49:57.777Z,99486.78
2023-04-13T01:54:16.540Z,99482.63
2023-04-13T01:58:23.501Z,99475.84
2023-04-13T02:02:32.807Z,99476.44
2023-04-13T02:06:36.961Z,99478.56
2023-04-13T02:10:42.877Z,99470.38
2023-04-13T02:14:46.130Z,99474.75
2023-04-13T02:18:49.237Z,99473.97
2023-04-13T02:22:51.374Z,99479.38
2023-04-13T02:26:53.378Z,99472.69
2023-04-13T02:30:57.031Z,99479.31
2023-04-13T02:35:02.284Z,99474.69
2023-04-13T02:39:05.039Z,99473.06
2023-04-13T02:43:10.058Z,99475.16
2023-04-13T02:47:13.675Z,99479.84
2023-04-13T02:51:16.062Z,99491.81
2023-04-13T02:55:19.044Z,99483.31
2023-04-13T02:59:30.805Z,99497.06
2023-04-13T03:03:33.563Z,99497.13
2023-04-13T03:07:36.548Z,99495.78
2023-04-13T03:11:40.187Z,99488.19
2023-04-13T03:15:56.092Z,99495.31
2023-04-13T03:20:00.874Z,99496.19
2023-04-13T03:24:02.981Z,99507.44
2023-04-13T03:28:06.104Z,99522.28
2023-04-13T03:32:14.293Z,99527.72
2023-04-13T03:36:21.350Z,99534.00
2023-04-13T03:40:24.326Z,99531.34
2023-04-13T03:44:28.051Z,99537.72
2023-04-13T03:48:30.874Z,99541.06
2023-04-13T03:52:35.237Z,99538.53
2023-04-13T03:56:38.827Z,99551.06
2023-04-13T04:00:43.408Z,99555.31
2023-04-13T04:05:06.042Z,99570.69
2023-04-13T04:09:10.183Z,99580.09
2023-04-13T04:13:17.368Z,99584.06
2023-04-13T04:17:23.972Z,99591.66
2023-04-13T04:21:33.868Z,99602.59
2023-04-13T04:25:40.529Z,99610.91
2023-04-13T04:29:49.115Z,99609.84
2023-04-13T04:34:02.426Z,99613.38
2023-04-13T04:38:09.248Z,99615.56
2023-04-13T04:42:12.685Z,99609.84
2023-04-13T04:46:16.197Z,99602.94
2023-04-13T04:50:24.266Z,99595.13
2023-04-13T04:54:33.415Z,99594.66
2023-04-13T04:58:35.945Z,99590.91
2023-04-13T05:02:38.246Z,99594.19
2023-04-13T05:06:44.676Z,99593.47
2023-04-13T05:10:51.903Z,99588.50
2023-04-13T05:14:54.830Z,99575.28
2023-04-13T05:18:57.305Z,99577.69
2023-04-13T05:23:19.495Z,99561.78
2023-04-13T05:27:28.403Z,99561.63
2023-04-13T05:31:31.489Z,99560.34
2023-04-13T05:35:33.824Z,99561.47
2023-04-13T05:39:37.907Z,99566.44
2023-04-13T05:43:40.805Z,99556.09
2023-04-13T05:47:45.241Z,99556.06
2023-04-13T05:51:49.835Z,99542.03
2023-04-13T05:55:53.152Z,99542.88
2023-04-13T05:59:55.628Z,99543.09
2023-04-13T06:04:03.774Z,99535.06
2023-04-13T06:08:10.419Z,99547.81
2023-04-13T06:12:14.012Z,99569.25
2023-04-13T06:16:16.101Z,99578.09
2023-04-13T06:20:18.575Z,99607.31
2023-04-13T06:24:20.989Z,99596.97
2023-04-13T06:28:28.933Z,99583.09
2023-04-13T06:32:32.889Z,99602.53
2023-04-13T06:36:35.734Z,99614.25
2023-04-13T06:40:38.740Z,99610.31
2023-04-13T06:44:43.795Z,99615.66
2023-04-13T06:48:46.782Z,99609.41
2023-04-13T06:52:50.883Z,99618.75
2023-04-13T06:56:53.087Z,99606.75
2023-04-13T07:00:55.208Z,99623.19
2023-04-13T07:04:59.133Z,99647.63
2023-04-13T07:09:02.454Z,99643.94
2023-04-13T07:13:07.529Z,99638.44
2023-04-13T07:17:11.345Z,99651.84
2023-04-13T07:21:15.372Z,99657.09
2023-04-13T07:25:30.911Z,99654.47
2023-04-13T07:29:32.843Z,99649.03
2023-04-13T07:33:39.216Z,99654.06
2023-04-13T07:37:42.496Z,99651.03
2023-04-13T07:41:46.474Z,99648.53
2023-04-13T07:45:52.931Z,99665.22
2023-04-13T07:49:55.634Z,99671.25
2023-04-13T07:53:58.674Z,99671.84
2023-04-13T07:58:03.718Z,99671.53
2023-04-13T08:02:07.242Z,99668.16
2023-04-13T08:06:12.591Z,99669.97
2023-04-13T08:10:15.166Z,99669.25
2023-04-13T08:14:17.422Z,99663.03
2023-04-13T08:18:24.110Z,99663.94
2023-04-13T08:22:26.261Z,99664.38
2023-04-13T08:26:29.061Z,99656.84
2023-04-13T08:30:35.541Z,99657.91
2023-04-13T08:34:38.643Z,99657.47
2023-04-13T08:38:40.995Z,99650.16
2023-04-13T08:42:43.522Z,99648.91
2023-04-13T08:46:46.681Z,99646.41
2023-04-13T08:50:56.882Z,99643.09
2023-04-13T08:55:02.345Z,99645.09
2023-04-13T08:59:07.529Z,99640.41
2023-04-13T09:03:14.109Z,99643.41
2023-04-13T09:07:26.711Z,99647.47
2023-04-13T09:11:32.801Z,99647.06
2023-04-13T09:15:38.981Z,99652.19
2023-04-13T09:19:57.302Z,99646.31
2023-04-13T09:23:59.761Z,99643.25
2023-04-13T09:28:01.802Z,99647.56
2023-04-13T09:32:06.688Z,99643.69
2023-04-13T09:36:10.548Z,99635.84
2023-04-13T09:40:14.622Z,99643.28
2023-04-13T09:44:22.209Z,99632.94
2023-04-13T09:48:24.519Z,99626.78
2023-04-13T09:52:26.667Z,99635.09
2023-04-13T09:56:29.187Z,99633.53
2023-04-13T10:00:31.883Z,99636.13
2023-04-13T10:04:34.940Z,99635.75
2023-04-13T10:08:41.948Z,99638.63
2023-04-13T10:12:52.804Z,99634.84
2023-04-13T10:17:05.762Z,99644.28
2023-04-13T10:21:10.066Z,99648.50
2023-04-13T10:25:29.173Z,99653.25
2023-04-13T10:29:35.322Z,99647.81
2023-04-13T10:33:50.858Z,99650.41
2023-04-13T10:37:59.325Z,99661.75
2023-04-13T10:42:02.458Z,99653.75
2023-04-13T10:46:13.940Z,99656.03
2023-04-13T10:50:24.318Z,99653.63
2023-04-13T10:54:27.409Z,99650.22
2023-04-13T10:58:33.215Z,99644.09
2023-04-13T11:02:35.976Z,99647.16
2023-04-13T11:06:38.950Z,99638.19
2023-04-13T11:10:41.660Z,99649.13
2023-04-13T11:14:50.821Z,99636.28
2023-04-13T11:19:04.297Z,99634.84
2023-04-13T11:23:18.055Z,99637.91
2023-04-13T11:27:21.789Z,99621.25
2023-04-13T11:31:39.095Z,99627.41
2023-04-13T11:35:49.773Z,99624.28
2023-04-13T11:39:52.224Z,99623.63
2023-04-13T11:43:54.643Z,99613.56
2023-04-13T11:47:57.636Z,99613.16
2023-04-13T11:52:01.727Z,99622.19
2023-04-13T11:56:04.375Z,99614.84
2023-04-13T12:00:16.441Z,99617.31
2023-04-13T12:04:18.975Z,99615.34
2023-04-13T12:08:26.078Z,99608.03
2023-04-13T12:12:51.311Z,99601.00
2023-04-13T12:21:01.240Z,99611.03
2023-04-13T12:25:24.421Z,99604.25
2023-04-13T12:29:26.954Z,99609.72
2023-04-13T12:33:29.014Z,99611.56
2023-04-13T12:37:31.053Z,99605.56
2023-04-13T12:41:33.524Z,99603.41
2023-04-13T12:45:35.514Z,99604.09
2023-04-13T12:49:37.616Z,99608.59
2023-04-13T12:53:39.604Z,99608.53
2023-04-13T12:57:41.725Z,99601.41
2023-04-13T13:01:43.761Z,99605.56
2023-04-13T13:05:45.891Z,99605.72
2023-04-13T13:09:47.801Z,99601.28
2023-04-13T13:13:49.922Z,99594.66
2023-04-13T13:17:51.991Z,99596.31
2023-04-13T13:21:54.489Z,99590.63
2023-04-13T13:26:17.862Z,99593.63
2023-04-13T13:30:18.745Z,99586.94
2023-04-13T13:34:21.036Z,99592.44
2023-04-13T13:38:23.140Z,99589.94
2023-04-13T13:42:25.278Z,99585.59
2023-04-13T13:46:27.868Z,99590.81
2023-04-13T13:50:31.615Z,99584.66
2023-04-13T13:54:36.847Z,99583.69
2023-04-13T13:58:38.963Z,99590.03
2023-04-13T14:02:41.397Z,99591.16
2023-04-13T14:06:43.435Z,99591.81
2023-04-13T14:10:48.660Z,99590.34
2023-04-13T14:14:50.856Z,99588.50
2023-04-13T14:18:53.247Z,99586.03
2023-04-13T14:22:55.484Z,99583.19
2023-04-13T14:26:57.825Z,99583.66
2023-04-13T14:30:59.863Z,99591.34
2023-04-13T14:35:02.199Z,99581.03
2023-04-13T14:39:05.273Z,99588.69
2023-04-13T14:43:07.916Z,99598.84
2023-04-13T14:47:12.221Z,99591.50
2023-04-13T14:51:17.461Z,99596.00
2023-04-13T14:55:19.720Z,99602.97
2023-04-13T14:59:22.139Z,99601.28
2023-04-13T15:03:24.460Z,99607.13
2023-04-13T15:07:29.933Z,99606.28
2023-04-13T15:11:32.234Z,99611.44
2023-04-13T15:15:36.836Z,99612.28
2023-04-13T15:19:38.822Z,99616.19
2023-04-13T15:23:44.192Z,99614.19
2023-04-13T15:27:56.737Z,99613.63
2023-04-13T15:32:00.401Z,99619.41
2023-04-13T15:36:02.743Z,99615.84
2023-04-13T15:40:07.896Z,99615.72
2023-04-13T15:44:11.070Z,99618.13
2023-04-13T15:48:13.423Z,99618.16
2023-04-13T15:52:15.482Z,99628.28
2023-04-13T15:56:17.675Z,99637.31
2023-04-13T16:00:20.701Z,99633.59
2023-04-13T16:04:23.611Z,99635.81
2023-04-13T16:08:25.943Z,99639.34
2023-04-13T16:12:32.320Z,99640.56
2023-04-13T16:16:46.580Z,99648.63
2023-04-13T16:20:49.834Z,99650.88
2023-04-13T16:24:51.832Z,99655.69
2023-04-13T16:28:54.411Z,99666.88
2023-04-13T16:32:56.666Z,99663.94
2023-04-13T16:36:58.995Z,99670.72
2023-04-13T16:41:01.636Z,99677.16
2023-04-13T16:45:03.833Z,99680.56
2023-04-13T16:49:06.218Z,99680.72
2023-04-13T16:53:08.251Z,99684.16
2023-04-13T16:57:10.191Z,99696.44
2023-04-13T17:01:12.491Z,99697.09
2023-04-13T17:05:15.102Z,99702.16
2023-04-13T17:09:17.088Z,99702.75
2023-04-13T17:13:19.181Z,99704.47
2023-04-13T17:17:21.304Z,99712.66
2023-04-13T17:21:23.722Z,99720.09
2023-04-13T17:25:26.044Z,99727.03
2023-04-13T17:29:28.618Z,99728.06
2023-04-13T17:33:30.781Z,99732.69
2023-04-13T17:37:33.051Z,99734.88
2023-04-13T17:41:35.440Z,99743.75
2023-04-13T17:45:40.368Z,99746.59
2023-04-13T17:49:43.702Z,99750.88
2023-04-13T17:53:46.025Z,99751.53
2023-04-13T17:57:48.450Z,99750.88
2023-04-13T18:01:53.710Z,99758.53
2023-04-13T18:05:56.533Z,99766.34
2023-04-13T18:09:58.573Z,99761.06
2023-04-13T18:14:02.814Z,99765.34
2023-04-13T18:18:05.696Z,99761.94
2023-04-13T18:22:08.157Z,99761.66
2023-04-13T18:26:17.490Z,99765.97
2023-04-13T18:30:20.993Z,99771.13
2023-04-13T18:34:23.302Z,99774.25
2023-04-13T18:38:25.882Z,99774.09
2023-04-13T18:42:28.228Z,99785.84
2023-04-13T18:46:30.585Z,99782.09
2023-04-13T18:50:32.604Z,99780.75
2023-04-13T18:54:34.830Z,99786.31
2023-04-13T18:58:37.363Z,99785.06
2023-04-13T19:02:41.390Z,99783.81
2023-04-13T19:06:44.363Z,99784.84
2023-04-13T19:10:46.630Z,99777.59
2023-04-13T19:14:48.907Z,99773.94
2023-04-13T19:18:51.239Z,99773.09
2023-04-13T19:22:53.631Z,99774.22
2023-04-13T19:26:56.637Z,99771.41
2023-04-13T19:30:58.978Z,99768.16
2023-04-13T19:35:01.247Z,99757.88
2023-04-13T19:39:08.161Z,99750.00
2023-04-13T19:43:10.671Z,99761.13
2023-04-13T19:47:12.648Z,99756.59
2023-04-13T19:51:14.814Z,99760.06
2023-04-13T19:55:16.858Z,99747.03
2023-04-13T19:59:19.000Z,99741.72
2023-04-13T20:03:21.138Z,99727.75
2023-04-13T20:07:23.586Z,99728.69
2023-04-13T20:11:25.828Z,99727.13
2023-04-13T20:15:31.000Z,99715.78
2023-04-13T20:19:36.248Z,99715.38
2023-04-13T20:23:38.272Z,99708.63
2023-04-13T20:27:42.112Z,99702.38
2023-04-13T20:31:44.635Z,99697.03
2023-04-13T20:35:46.604Z,99693.22
2023-04-13T20:39:53.029Z,99692.19
2023-04-13T20:43:55.475Z,99685.91
2023-04-13T20:52:24.207Z,99682.63
2023-04-13T20:56:26.446Z,99695.22
2023-04-13T21:00:28.578Z,99698.28
2023-04-13T21:04:31.020Z,99688.94
2023-04-13T21:08:33.202Z,99692.63
2023-04-13T21:12:35.729Z,99697.97
2023-04-13T21:16:37.765Z,99701.72
2023-04-13T21:20:40.967Z,99709.69
2023-04-13T21:24:42.948Z,99710.41
2023-04-13T21:28:45.006Z,99711.13
2023-04-13T21:32:47.021Z,99713.03
2023-04-13T21:36:52.010Z,99714.97
2023-04-13T21:40:54.173Z,99715.75
2023-04-13T21:44:57.129Z,99718.22
2023-04-13T21:48:59.458Z,99716.16
2023-04-13T21:53:01.652Z,99722.75
2023-04-13T21:57:04.495Z,99719.91
2023-04-13T22:01:07.297Z,99721.47
2023-04-13T22:05:11.426Z,99732.91
2023-04-13T22:09:13.774Z,99732.78
2023-04-13T22:13:15.974Z,99741.28
2023-04-13T22:17:17.511Z,99735.88
2023-04-13T22:21:19.506Z,99742.56
2023-04-13T22:25:25.232Z,99742.31
2023-04-13T22:29:27.200Z,99739.69
2023-04-13T22:33:31.914Z,99737.19
2023-04-13T22:37:35.408Z,99741.75
2023-04-13T22:41:37.381Z,99743.94
2023-04-13T22:45:39.364Z,99742.00
2023-04-13T22:49:41.495Z,99742.06
2023-04-13T22:53:43.468Z,99742.97
2023-04-13T22:57:45.538Z,99752.72
2023-04-13T23:01:47.673Z,99748.59
2023-04-13T23:05:49.817Z,99747.75
2023-04-13T23:09:53.182Z,99750.69
2023-04-13T23:13:55.395Z,99753.31
2023-04-13T23:17:57.345Z,99749.16
2023-04-13T23:21:59.401Z,99751.31
2023-04-13T23:26:01.584Z,99752.53
2023-04-13T23:30:04.388Z,99747.13
2023-04-13T23:34:06.417Z,99752.53
2023-04-13T23:38:08.573Z,99755.44
2023-04-13T23:42:10.566Z,99756.38
2023-04-13T23:46:13.158Z,99756.56
2023-04-13T23:50:17.833Z,99759.84
2023-04-13T23:54:19.947Z,99761.50
2023-04-13T23:58:21.882Z,99761.78
